Cardiff, Maryland
Current Conditions -  °F | °C
As of 5:33 AM on Sunday 21 Dec 2014 (Local Time) from KMTN Reporting Station
Overcast Overcast  
Wind Chill: 32°   Ceiling: 7000
Heat Index: 32°   Visibility: 10mi
Dew Point: 28°   Wind: 0mph
Humidity: 87%   Direction: NA
Pressure: 30.33"   Gusts: NA
Location:  39.7064°N, 76.3071°W
Report Text: KMTN 211033Z AUTO 00000KT 10SM OVC070 00/M02 A3033 RMK AO2
Loading
Personal Weather Stations






























Interactive Weather Map New forecast layout! Learn more

10-Day Weather Forecast

Advertisements
Track Severe Weather on mobile